Time;durP1;ratioP1;P1;durP2;ratioP2;P2;SDS_P1;SDS_P2;PMS_P1;PMS_P2;Temp;Humidity;BMP_temperature;BMP_pressure;BME280_temperature;BME280_humidity;BME280_pressure;Samples;Min_cycle;Max_cycle;Signal;HPM_P1;HPM_P2
2022/12/31 00:01:20;;;;;;;0.70;0.50;;;16.00;99.90;;;;;;4987193;28;20398;-86
2022/12/31 00:03:47;;;;;;;0.60;0.55;;;16.00;99.90;;;;;;4968321;28;20487;-86
2022/12/31 00:06:15;;;;;;;0.55;0.55;;;16.00;99.90;;;;;;4967180;28;20037;-86
2022/12/31 00:08:42;;;;;;;0.60;0.60;;;16.00;99.90;;;;;;4977518;28;20390;-85
2022/12/31 00:11:07;;;;;;;1.07;0.60;;;16.00;99.90;;;;;;4985653;28;20033;-85
2022/12/31 00:13:33;;;;;;;0.75;0.60;;;15.90;99.90;;;;;;4973623;28;20221;-85
2022/12/31 00:16:29;;;;;;;0.80;0.63;;;16.00;99.90;;;;;;4987858;28;20479;-86
2022/12/31 00:19:00;;;;;;;0.50;0.50;;;15.90;99.90;;;;;;4974031;28;20281;-85
2022/12/31 00:21:28;;;;;;;1.45;0.73;;;15.90;99.90;;;;;;4949073;28;20528;-85
2022/12/31 00:23:54;;;;;;;1.15;0.73;;;15.90;99.90;;;;;;4981425;28;20026;-85
2022/12/31 00:26:26;;;;;;;0.70;0.70;;;15.90;99.90;;;;;;4991869;28;20033;-84
2022/12/31 00:28:53;;;;;;;0.70;0.70;;;15.90;99.90;;;;;;4996726;28;20053;-86
2022/12/31 00:31:25;;;;;;;1.17;0.70;;;15.90;99.90;;;;;;4958392;28;20045;-85
2022/12/31 00:33:51;;;;;;;0.93;0.60;;;15.90;99.90;;;;;;4978992;28;20109;-86
2022/12/31 00:36:31;;;;;;;0.68;0.68;;;15.90;99.90;;;;;;4966929;28;20305;-85
2022/12/31 00:38:59;;;;;;;0.60;0.60;;;15.90;99.90;;;;;;4981735;28;20030;-85
2022/12/31 00:41:25;;;;;;;0.73;0.60;;;15.90;99.90;;;;;;4981842;28;20018;-86
2022/12/31 00:43:52;;;;;;;1.13;0.67;;;15.90;99.90;;;;;;5007538;28;20391;-86
2022/12/31 00:46:18;;;;;;;0.60;0.60;;;15.90;99.90;;;;;;4976534;28;20022;-85
2022/12/31 00:48:44;;;;;;;0.52;0.52;;;16.00;99.90;;;;;;4990608;28;20033;-86
2022/12/31 00:51:14;;;;;;;1.42;0.70;;;16.00;99.90;;;;;;4970138;28;20045;-86
2022/12/31 00:53:40;;;;;;;0.60;0.60;;;16.00;99.90;;;;;;4981532;28;20113;-87
2022/12/31 00:56:11;;;;;;;0.60;0.60;;;16.10;99.90;;;;;;4982304;28;20029;-85
2022/12/31 00:58:38;;;;;;;0.63;0.50;;;16.10;99.90;;;;;;5003794;28;20117;-86
2022/12/31 01:01:17;;;;;;;0.60;0.60;;;16.20;99.90;;;;;;4979979;28;20153;-85
2022/12/31 01:03:44;;;;;;;0.77;0.50;;;16.20;99.90;;;;;;4986967;28;20481;-85
2022/12/31 01:06:11;;;;;;;0.50;0.50;;;16.30;99.90;;;;;;4972521;28;20029;-87
2022/12/31 01:08:37;;;;;;;0.80;0.50;;;16.30;99.90;;;;;;4966315;28;20037;-87
2022/12/31 01:11:18;;;;;;;1.88;0.70;;;16.40;99.90;;;;;;4976075;28;20096;-87
2022/12/31 01:13:48;;;;;;;1.00;0.50;;;16.50;99.90;;;;;;4996591;28;20088;-86
2022/12/31 01:16:15;;;;;;;2.15;0.65;;;16.50;99.90;;;;;;4984012;28;20087;-86
2022/12/31 01:18:42;;;;;;;0.40;0.40;;;16.50;99.90;;;;;;4978320;28;20022;-85
2022/12/31 01:21:10;;;;;;;0.98;0.40;;;16.50;99.90;;;;;;4988721;28;20104;-88
2022/12/31 01:23:36;;;;;;;0.65;0.30;;;16.50;99.90;;;;;;4980787;28;22504;-86
2022/12/31 01:26:04;;;;;;;0.30;0.30;;;16.40;99.90;;;;;;4976717;28;20505;-87
2022/12/31 01:28:30;;;;;;;0.30;0.30;;;16.30;99.90;;;;;;4975156;28;20247;-88
2022/12/31 01:30:56;;;;;;;0.40;0.40;;;16.20;99.90;;;;;;4980757;28;20056;-86
2022/12/31 01:33:22;;;;;;;0.20;0.20;;;16.00;99.90;;;;;;4980605;28;20025;-86
2022/12/31 01:35:48;;;;;;;0.30;0.30;;;15.90;99.90;;;;;;4952919;28;20509;-85
2022/12/31 01:38:14;;;;;;;0.30;0.30;;;15.80;99.90;;;;;;4974880;28;20032;-85
2022/12/31 01:40:40;;;;;;;0.30;0.30;;;15.80;99.90;;;;;;4979590;28;20108;-86
2022/12/31 01:43:17;;;;;;;0.30;0.30;;;15.70;99.90;;;;;;4990504;28;20112;-86
2022/12/31 01:45:45;;;;;;;0.20;0.20;;;15.60;99.90;;;;;;4972899;28;20029;-85
2022/12/31 01:48:13;;;;;;;0.30;0.30;;;15.60;99.90;;;;;;4978679;28;20076;-85
2022/12/31 01:50:40;;;;;;;0.20;0.20;;;15.50;99.90;;;;;;4991359;28;20696;-85
2022/12/31 01:53:08;;;;;;;0.20;0.20;;;15.50;99.90;;;;;;4969588;28;20049;-85
2022/12/31 01:55:45;;;;;;;0.45;0.45;;;15.40;99.90;;;;;;4978882;28;20264;-85
2022/12/31 01:58:19;;;;;;;0.20;0.20;;;15.40;99.90;;;;;;4989113;28;20036;-84
2022/12/31 02:00:46;;;;;;;0.30;0.30;;;15.30;99.90;;;;;;5008553;28;20014;-87
2022/12/31 02:03:12;;;;;;;0.40;0.40;;;15.30;99.90;;;;;;4984002;28;20710;-86
2022/12/31 02:05:49;;;;;;;0.30;0.30;;;15.30;99.90;;;;;;4974943;28;20144;-89
2022/12/31 02:08:16;;;;;;;0.30;0.30;;;15.30;99.90;;;;;;4972467;28;20785;-86
2022/12/31 02:10:42;;;;;;;0.30;0.30;;;15.30;99.90;;;;;;4965286;28;20037;-86
2022/12/31 02:13:08;;;;;;;0.20;0.20;;;15.20;99.90;;;;;;4989924;28;20044;-86
2022/12/31 02:16:15;;;;;;;0.30;0.30;;;15.20;99.90;;;;;;5005997;28;20036;-87
2022/12/31 02:19:13;;;;;;;0.20;0.20;;;15.20;99.90;;;;;;4943773;28;20038;-85
2022/12/31 02:22:16;;;;;;;0.20;0.20;;;15.20;99.90;;;;;;4970856;28;20331;-86
2022/12/31 02:25:07;;;;;;;0.20;0.20;;;15.20;99.90;;;;;;4973153;28;20098;-85
2022/12/31 02:27:39;;;;;;;0.30;0.30;;;15.20;99.90;;;;;;4973262;28;20028;-86
2022/12/31 02:30:18;;;;;;;0.30;0.30;;;15.20;99.90;;;;;;4974252;28;20030;-86
2022/12/31 02:33:03;;;;;;;0.20;0.20;;;15.20;99.90;;;;;;4938947;28;20050;-85
2022/12/31 02:35:37;;;;;;;0.30;0.30;;;15.20;99.90;;;;;;5004263;28;20297;-85
2022/12/31 02:38:23;;;;;;;0.30;0.30;;;15.20;99.90;;;;;;4979500;28;20037;-86
2022/12/31 02:40:51;;;;;;;0.40;0.40;;;15.20;99.90;;;;;;4956686;28;20710;-86
2022/12/31 02:43:17;;;;;;;0.77;0.30;;;15.20;99.90;;;;;;4966006;28;20124;-86
2022/12/31 02:45:47;;;;;;;0.30;0.30;;;15.20;99.90;;;;;;4975051;28;20041;-85
2022/12/31 02:48:45;;;;;;;1.27;0.40;;;15.30;99.90;;;;;;4961527;28;20292;-85
2022/12/31 02:51:42;;;;;;;1.05;0.50;;;15.30;99.90;;;;;;4958635;28;20397;-86
2022/12/31 02:54:21;;;;;;;1.10;0.40;;;15.40;99.90;;;;;;4954969;28;20037;-89
2022/12/31 02:56:58;;;;;;;1.03;0.50;;;15.50;99.90;;;;;;5008731;28;20362;-86
2022/12/31 03:02:22;;;;;;;1.13;0.50;;;15.60;99.90;;;;;;4986388;28;20184;-87
2022/12/31 03:04:52;;;;;;;1.23;0.50;;;15.70;99.90;;;;;;4960492;28;20037;-85
2022/12/31 03:07:23;;;;;;;2.55;0.60;;;15.80;99.90;;;;;;4950147;28;20029;-88
2022/12/31 03:09:49;;;;;;;2.03;0.60;;;15.90;99.90;;;;;;4953037;28;20021;-86
2022/12/31 03:15:05;;;;;;;1.27;0.60;;;16.10;99.90;;;;;;4975837;28;20053;-85
2022/12/31 03:17:34;;;;;;;1.85;0.50;;;16.10;99.90;;;;;;4986980;28;20087;-87
2022/12/31 03:22:43;;;;;;;2.70;0.87;;;16.20;99.90;;;;;;4990602;28;20179;-87
2022/12/31 03:28:28;;;;;;;2.45;0.60;;;16.30;99.90;;;;;;4999413;28;20303;-86
2022/12/31 03:30:56;;;;;;;1.95;0.50;;;16.40;99.90;;;;;;4987466;28;20607;-87
2022/12/31 03:33:23;;;;;;;2.70;0.70;;;16.40;99.90;;;;;;4985080;28;20029;-87
2022/12/31 03:35:50;;;;;;;1.45;0.57;;;16.50;99.90;;;;;;4981298;28;20397;-87
2022/12/31 03:38:17;;;;;;;2.03;0.60;;;16.60;99.90;;;;;;4985080;28;20692;-87
2022/12/31 03:40:46;;;;;;;2.42;0.80;;;16.60;99.90;;;;;;4954594;28;21683;-88
2022/12/31 03:43:12;;;;;;;2.17;1.17;;;16.70;99.90;;;;;;4968667;28;20521;-86
2022/12/31 03:45:38;;;;;;;4.47;1.30;;;16.80;99.90;;;;;;4989149;28;20268;-88
2022/12/31 03:48:06;;;;;;;4.82;2.05;;;16.90;99.90;;;;;;4975733;28;20104;-88
2022/12/31 03:50:31;;;;;;;3.75;1.95;;;16.90;99.90;;;;;;4978905;28;22598;-88
2022/12/31 03:52:57;;;;;;;4.00;1.70;;;16.90;99.90;;;;;;4988278;28;20037;-87
2022/12/31 03:55:23;;;;;;;2.97;1.40;;;17.00;99.90;;;;;;4963746;28;20402;-88
2022/12/31 03:57:49;;;;;;;3.90;1.10;;;17.00;99.90;;;;;;4948976;28;20034;-87
2022/12/31 04:00:17;;;;;;;2.77;0.87;;;17.10;99.90;;;;;;4977705;28;20092;-87
2022/12/31 04:02:44;;;;;;;1.95;0.80;;;17.10;99.90;;;;;;4968967;28;20389;-86
2022/12/31 04:05:11;;;;;;;2.58;0.70;;;17.20;99.90;;;;;;4963534;28;20026;-88
2022/12/31 04:07:38;;;;;;;1.83;0.52;;;17.20;99.90;;;;;;4974775;28;20112;-87
2022/12/31 04:10:06;;;;;;;0.82;0.60;;;17.20;99.90;;;;;;4983364;28;20175;-87
2022/12/31 04:12:32;;;;;;;1.10;0.50;;;17.30;99.90;;;;;;4963862;28;20038;-89
2022/12/31 04:14:59;;;;;;;2.15;0.65;;;17.30;99.90;;;;;;4967597;28;20084;-86
2022/12/31 04:17:25;;;;;;;2.17;0.50;;;17.30;99.90;;;;;;4963620;28;20548;-87
2022/12/31 04:19:51;;;;;;;2.53;0.55;;;17.40;99.90;;;;;;4984981;28;20037;-87
2022/12/31 04:22:17;;;;;;;1.05;0.50;;;17.40;99.90;;;;;;4959662;28;20390;-89
2022/12/31 04:24:44;;;;;;;1.93;0.60;;;17.40;99.90;;;;;;4969587;28;20239;-88
2022/12/31 04:27:11;;;;;;;0.70;0.43;;;17.40;99.90;;;;;;4981484;28;20062;-89
2022/12/31 04:29:37;;;;;;;2.10;0.50;;;17.40;99.90;;;;;;4962663;28;20038;-89
2022/12/31 04:32:04;;;;;;;1.67;0.40;;;17.50;99.90;;;;;;4970377;28;20077;-89
2022/12/31 04:34:30;;;;;;;2.13;0.60;;;17.50;99.90;;;;;;4970821;28;20076;-88
2022/12/31 04:36:56;;;;;;;0.73;0.40;;;17.50;99.90;;;;;;4962620;28;20022;-89
2022/12/31 04:39:22;;;;;;;1.45;0.40;;;17.60;99.90;;;;;;4970324;28;20625;-87
2022/12/31 04:41:48;;;;;;;1.50;0.60;;;17.60;99.90;;;;;;4974028;28;20591;-86
2022/12/31 04:44:14;;;;;;;1.42;0.57;;;17.60;99.90;;;;;;4968660;28;20030;-88
2022/12/31 04:46:40;;;;;;;0.50;0.40;;;17.60;99.90;;;;;;4959485;28;20434;-89
2022/12/31 04:49:06;;;;;;;0.77;0.43;;;17.60;99.90;;;;;;4966670;28;20030;-87
2022/12/31 04:51:32;;;;;;;1.05;0.47;;;17.60;99.90;;;;;;4957153;28;20046;-88
2022/12/31 04:53:58;;;;;;;0.88;0.50;;;17.60;99.90;;;;;;4993953;28;20092;-86
2022/12/31 04:56:26;;;;;;;0.67;0.40;;;17.50;99.90;;;;;;4974572;28;20132;-89
2022/12/31 04:58:52;;;;;;;1.55;0.52;;;17.60;99.90;;;;;;4984225;28;20057;-87
2022/12/31 05:01:17;;;;;;;2.03;0.50;;;17.50;99.90;;;;;;4943481;28;20195;-87
2022/12/31 05:03:43;;;;;;;1.20;0.50;;;17.50;99.90;;;;;;4980939;28;20037;-86
2022/12/31 05:06:15;;;;;;;1.67;0.50;;;17.60;99.90;;;;;;4989621;28;20033;-89
2022/12/31 05:08:42;;;;;;;0.73;0.40;;;17.60;99.90;;;;;;4969597;28;20186;-87
2022/12/31 05:11:08;;;;;;;1.43;0.50;;;17.60;99.90;;;;;;4992269;28;20124;-89
2022/12/31 05:13:34;;;;;;;1.73;0.50;;;17.60;99.90;;;;;;4969285;28;20465;-87
2022/12/31 05:16:01;;;;;;;0.73;0.50;;;17.60;99.90;;;;;;4959262;28;20449;-88
2022/12/31 05:18:29;;;;;;;1.40;0.52;;;17.60;99.90;;;;;;4966066;28;20064;-88
2022/12/31 05:20:54;;;;;;;2.73;0.60;;;17.70;99.90;;;;;;4973289;28;20103;-89
2022/12/31 05:23:22;;;;;;;1.15;0.55;;;17.70;99.90;;;;;;4966182;28;20530;-87
2022/12/31 05:25:48;;;;;;;1.08;0.50;;;17.80;99.90;;;;;;4976306;28;20396;-88
2022/12/31 05:28:15;;;;;;;2.25;0.68;;;17.90;99.90;;;;;;4980452;28;20036;-90
2022/12/31 05:30:42;;;;;;;2.20;0.53;;;17.90;99.90;;;;;;4974617;28;20535;-87
2022/12/31 05:33:08;;;;;;;1.30;0.45;;;18.00;99.90;;;;;;4950647;28;20698;-92
2022/12/31 05:35:34;;;;;;;0.98;0.40;;;18.00;99.90;;;;;;4972412;28;20529;-88
2022/12/31 05:38:00;;;;;;;1.67;0.70;;;18.00;99.90;;;;;;4974401;28;20014;-88
2022/12/31 05:40:27;;;;;;;0.98;0.60;;;18.10;99.90;;;;;;4975766;28;20588;-88
2022/12/31 05:42:53;;;;;;;1.03;0.50;;;18.10;99.90;;;;;;4990469;28;20030;-86
2022/12/31 05:45:19;;;;;;;1.20;0.50;;;18.10;99.90;;;;;;4988409;28;20132;-86
2022/12/31 05:47:45;;;;;;;1.20;0.40;;;18.10;99.90;;;;;;4961192;28;20051;-87
2022/12/31 05:50:14;;;;;;;1.47;0.40;;;18.10;99.90;;;;;;4966147;28;20052;-87
2022/12/31 05:52:40;;;;;;;2.15;0.50;;;18.10;99.90;;;;;;4989929;28;20362;-87
2022/12/31 05:55:06;;;;;;;2.40;0.50;;;18.20;99.90;;;;;;4960569;28;20037;-87
2022/12/31 05:57:32;;;;;;;1.40;0.60;;;18.20;99.90;;;;;;4970790;28;20266;-88
2022/12/31 05:59:58;;;;;;;0.83;0.50;;;18.20;99.90;;;;;;4986621;28;20307;-87
2022/12/31 06:02:24;;;;;;;1.95;0.50;;;18.20;99.90;;;;;;4963561;28;20264;-89
2022/12/31 06:04:51;;;;;;;0.90;0.57;;;18.20;99.90;;;;;;4967660;28;20049;-88
2022/12/31 06:07:17;;;;;;;2.00;0.50;;;18.20;99.90;;;;;;4981016;28;20457;-87
2022/12/31 06:09:43;;;;;;;1.80;0.70;;;18.20;99.90;;;;;;4980765;28;20516;-87
2022/12/31 06:12:09;;;;;;;1.73;0.52;;;18.20;99.90;;;;;;4987986;28;20033;-86
2022/12/31 06:14:35;;;;;;;1.20;0.50;;;18.30;99.90;;;;;;4971704;28;20214;-88
2022/12/31 06:17:01;;;;;;;1.60;0.57;;;18.20;99.90;;;;;;4993383;28;20105;-87
2022/12/31 06:19:27;;;;;;;1.50;0.60;;;18.20;99.90;;;;;;4949833;28;20739;-88
2022/12/31 06:21:53;;;;;;;2.75;0.70;;;18.20;99.90;;;;;;4977018;28;20121;-87
2022/12/31 06:24:19;;;;;;;2.63;0.60;;;18.20;99.90;;;;;;4979314;28;20074;-88
2022/12/31 06:26:46;;;;;;;1.58;0.50;;;18.30;99.90;;;;;;4978616;28;20030;-88
2022/12/31 06:29:13;;;;;;;1.65;0.60;;;18.30;99.90;;;;;;4957192;28;20306;-91
2022/12/31 06:31:39;;;;;;;2.28;0.70;;;18.30;99.90;;;;;;4971770;28;20581;-88
2022/12/31 06:34:05;;;;;;;2.15;0.60;;;18.30;99.90;;;;;;4952831;28;20029;-89
2022/12/31 06:36:30;;;;;;;1.97;0.90;;;18.20;99.90;;;;;;4957578;28;20232;-87
2022/12/31 06:38:56;;;;;;;1.70;0.65;;;18.20;99.90;;;;;;4989480;28;20022;-89
2022/12/31 06:41:22;;;;;;;3.10;0.70;;;18.10;99.90;;;;;;4957391;28;20310;-87
2022/12/31 06:43:50;;;;;;;2.40;0.63;;;18.10;99.90;;;;;;4976542;28;20053;-88
2022/12/31 06:46:17;;;;;;;2.15;0.60;;;18.10;99.90;;;;;;4972526;28;20105;-90
2022/12/31 06:48:43;;;;;;;4.13;0.70;;;18.10;99.90;;;;;;4939827;28;20042;-86
2022/12/31 06:51:16;;;;;;;2.67;0.80;;;18.10;99.90;;;;;;4951452;28;20030;-88
2022/12/31 06:53:43;;;;;;;2.15;0.70;;;18.20;99.90;;;;;;4972963;28;20056;-87
2022/12/31 06:56:14;;;;;;;2.35;0.70;;;18.20;99.90;;;;;;4964328;28;20312;-89
2022/12/31 06:58:41;;;;;;;1.58;0.60;;;18.20;99.90;;;;;;4991330;28;20160;-89
2022/12/31 07:01:29;;;;;;;2.17;0.60;;;18.20;99.90;;;;;;4987626;28;20128;-88
2022/12/31 07:04:23;;;;;;;1.50;0.60;;;18.20;99.90;;;;;;4976512;28;20091;-87
2022/12/31 07:07:40;;;;;;;1.33;0.63;;;18.00;99.90;;;;;;4983420;28;20033;-89
2022/12/31 07:10:41;;;;;;;1.65;0.57;;;17.90;99.90;;;;;;4892899;29;20031;-88
2022/12/31 07:13:46;;;;;;;2.03;0.85;;;17.80;99.90;;;;;;4873480;29;20093;-87
2022/12/31 07:16:20;;;;;;;2.88;0.60;;;17.70;99.90;;;;;;4988470;28;20208;-89
2022/12/31 07:19:12;;;;;;;3.37;0.70;;;17.60;99.90;;;;;;4976173;28;20022;-86
2022/12/31 07:21:40;;;;;;;1.92;0.70;;;17.60;99.90;;;;;;4957188;28;20116;-87
2022/12/31 07:24:07;;;;;;;1.63;0.70;;;17.50;99.90;;;;;;4967734;28;20068;-88
2022/12/31 07:26:45;;;;;;;1.70;0.77;;;17.40;99.90;;;;;;4955064;28;20056;-87
2022/12/31 07:29:20;;;;;;;1.55;0.68;;;17.40;99.90;;;;;;5004566;28;20575;-86
2022/12/31 07:31:46;;;;;;;2.60;0.70;;;17.40;99.90;;;;;;4999787;28;20057;-88
2022/12/31 07:34:34;;;;;;;1.70;0.63;;;17.30;99.90;;;;;;4991597;28;20681;-88
2022/12/31 07:37:21;;;;;;;3.00;0.70;;;17.30;99.90;;;;;;4960743;28;20243;-87
2022/12/31 07:40:18;;;;;;;1.80;0.60;;;17.30;99.90;;;;;;4967763;28;20236;-89
2022/12/31 07:43:10;;;;;;;1.30;0.60;;;17.30;99.90;;;;;;4991075;28;20058;-91
2022/12/31 07:45:52;;;;;;;1.50;0.70;;;17.30;99.90;;;;;;4964021;28;20201;-88
2022/12/31 07:48:26;;;;;;;1.20;0.60;;;17.40;99.90;;;;;;4987467;28;20128;-88
2022/12/31 07:50:54;;;;;;;2.65;0.68;;;17.40;99.90;;;;;;4966392;28;20319;-88
2022/12/31 07:53:21;;;;;;;2.57;0.80;;;17.40;99.90;;;;;;4952990;28;20103;-88
2022/12/31 07:55:52;;;;;;;1.60;0.70;;;17.40;99.90;;;;;;4958779;28;20034;-87
2022/12/31 07:58:32;;;;;;;1.55;0.70;;;17.40;99.90;;;;;;4971687;28;20053;-89
2022/12/31 08:00:58;;;;;;;0.88;0.60;;;17.30;99.90;;;;;;4970924;28;20454;-87
2022/12/31 08:03:41;;;;;;;2.75;0.85;;;17.30;99.90;;;;;;4963190;28;20022;-87
2022/12/31 08:06:18;;;;;;;1.67;0.80;;;17.20;99.90;;;;;;4971468;28;20483;-88
2022/12/31 08:09:19;;;;;;;1.35;0.70;;;17.20;99.90;;;;;;4946724;28;20114;-89
2022/12/31 08:12:00;;;;;;;2.00;0.80;;;17.20;99.90;;;;;;4973506;28;20031;-89
2022/12/31 08:14:27;;;;;;;1.02;0.63;;;17.20;99.90;;;;;;4942705;28;20050;-87
2022/12/31 08:16:55;;;;;;;1.88;0.70;;;17.20;99.90;;;;;;4954033;28;20104;-89
2022/12/31 08:19:31;;;;;;;1.03;0.60;;;17.30;99.90;;;;;;4963598;28;20327;-89
2022/12/31 08:22:29;;;;;;;2.40;0.80;;;17.30;99.90;;;;;;4953989;28;20030;-87
2022/12/31 08:25:06;;;;;;;2.45;0.90;;;17.30;99.90;;;;;;4948875;28;20269;-86
2022/12/31 08:28:10;;;;;;;2.58;0.90;;;17.40;99.90;;;;;;4984613;28;20030;-86
2022/12/31 08:31:02;;;;;;;2.30;0.80;;;17.40;99.90;;;;;;4961986;28;20057;-86
2022/12/31 08:33:42;;;;;;;2.13;0.80;;;17.40;99.90;;;;;;4975598;28;20116;-89
2022/12/31 08:36:16;;;;;;;2.47;0.80;;;17.50;99.90;;;;;;4980703;28;20045;-88
2022/12/31 08:39:14;;;;;;;1.13;0.65;;;17.50;99.90;;;;;;4970640;28;20033;-89
2022/12/31 08:41:44;;;;;;;2.50;0.70;;;17.60;99.90;;;;;;4963258;28;20517;-88
2022/12/31 08:44:27;;;;;;;2.55;0.90;;;17.60;99.90;;;;;;4977460;28;20327;-87
2022/12/31 08:47:05;;;;;;;1.17;0.60;;;17.70;99.90;;;;;;4974968;28;20304;-88
2022/12/31 08:49:33;;;;;;;1.92;0.68;;;17.70;99.90;;;;;;4977748;28;20711;-87
2022/12/31 08:52:01;;;;;;;4.07;0.90;;;17.70;99.90;;;;;;4961311;28;20159;-88
2022/12/31 08:54:29;;;;;;;3.42;1.10;;;17.70;99.90;;;;;;4958089;28;20495;-88
2022/12/31 08:57:32;;;;;;;2.85;1.00;;;17.80;99.90;;;;;;4976701;28;20026;-88
2022/12/31 09:00:11;;;;;;;3.37;1.00;;;17.90;99.90;;;;;;4965489;28;20515;-88
2022/12/31 09:02:36;;;;;;;1.90;0.90;;;17.90;99.90;;;;;;4982442;28;20474;-87
2022/12/31 09:05:23;;;;;;;2.10;0.90;;;18.00;99.90;;;;;;4975119;28;20053;-87
2022/12/31 09:08:22;;;;;;;3.13;1.00;;;18.00;99.90;;;;;;4982777;28;20053;-87
2022/12/31 09:11:11;;;;;;;2.20;0.80;;;18.10;99.90;;;;;;4965644;28;20034;-88
2022/12/31 09:13:43;;;;;;;3.05;1.15;;;18.20;99.90;;;;;;4973104;28;20030;-88
2022/12/31 09:16:23;;;;;;;2.53;1.00;;;18.10;99.90;;;;;;4970983;28;20139;-87
2022/12/31 09:18:49;;;;;;;2.72;1.10;;;18.20;99.90;;;;;;4971400;28;20672;-88
2022/12/31 09:21:15;;;;;;;3.13;1.10;;;18.20;99.90;;;;;;4986447;28;20111;-88
2022/12/31 09:23:41;;;;;;;3.47;1.13;;;18.30;99.90;;;;;;4973578;28;20030;-87
2022/12/31 09:26:38;;;;;;;2.85;0.90;;;18.30;99.90;;;;;;4968032;28;20050;-87
2022/12/31 09:29:03;;;;;;;2.72;1.10;;;18.30;99.90;;;;;;4962904;28;20245;-87
2022/12/31 09:31:48;;;;;;;1.90;0.90;;;18.40;99.90;;;;;;4979847;28;20507;-89
2022/12/31 09:34:47;;;;;;;3.53;1.10;;;18.40;99.90;;;;;;4988213;28;20284;-87
2022/12/31 09:37:34;;;;;;;4.18;1.05;;;18.40;99.90;;;;;;4945569;28;20149;-88
2022/12/31 09:40:13;;;;;;;3.55;1.20;;;18.40;99.90;;;;;;4987855;28;20029;-86
2022/12/31 09:43:04;;;;;;;2.60;1.00;;;18.40;99.90;;;;;;4965148;28;20152;-89
2022/12/31 09:46:13;;;;;;;3.50;1.00;;;18.50;99.90;;;;;;4971255;28;20030;-88
2022/12/31 09:49:17;;;;;;;4.63;1.40;;;18.50;99.90;;;;;;4910979;28;20121;-87
2022/12/31 09:52:18;;;;;;;3.15;1.17;;;18.50;99.90;;;;;;4985365;28;20526;-89
2022/12/31 09:55:04;;;;;;;3.63;1.10;;;18.50;99.90;;;;;;4970113;28;20049;-88
2022/12/31 09:57:57;;;;;;;1.60;0.80;;;18.50;99.90;;;;;;4974510;28;20405;-88
2022/12/31 10:00:46;;;;;;;2.92;1.00;;;18.50;99.90;;;;;;4973279;28;20025;-88
2022/12/31 10:03:53;;;;;;;3.42;1.20;;;18.50;99.90;;;;;;4996903;28;20049;-89
2022/12/31 10:06:21;;;;;;;3.72;1.00;;;18.50;99.90;;;;;;4936024;28;20079;-87
2022/12/31 10:08:49;;;;;;;3.08;1.00;;;18.40;99.90;;;;;;4975732;28;20418;-88
2022/12/31 10:11:21;;;;;;;4.23;1.20;;;18.40;99.90;;;;;;4977645;28;20029;-89
2022/12/31 10:14:09;;;;;;;2.42;0.93;;;18.40;99.90;;;;;;4968291;28;20087;-87
2022/12/31 10:17:17;;;;;;;2.95;1.00;;;18.40;99.90;;;;;;4963209;28;20634;-87
2022/12/31 10:20:01;;;;;;;4.20;1.10;;;18.40;99.90;;;;;;4962819;28;20410;-87
2022/12/31 10:22:59;;;;;;;2.97;1.05;;;18.40;99.90;;;;;;4989918;28;20103;-90
2022/12/31 10:25:46;;;;;;;3.67;1.10;;;18.40;99.90;;;;;;4976275;28;20034;-87
2022/12/31 10:28:24;;;;;;;4.18;1.10;;;18.40;99.90;;;;;;4973487;28;20034;-86
2022/12/31 10:31:30;;;;;;;3.20;1.20;;;18.40;99.90;;;;;;4999546;28;20029;-88
2022/12/31 10:33:56;;;;;;;3.90;1.10;;;18.40;99.90;;;;;;4995245;28;20030;-88
2022/12/31 10:36:54;;;;;;;3.77;1.07;;;18.40;99.90;;;;;;4987996;28;20037;-87
2022/12/31 10:39:26;;;;;;;3.72;1.17;;;18.50;99.90;;;;;;4940951;28;20057;-88
2022/12/31 10:42:13;;;;;;;2.97;0.90;;;18.50;99.90;;;;;;4993662;28;20403;-88
2022/12/31 10:45:24;;;;;;;3.00;0.98;;;18.50;99.90;;;;;;4972138;28;20061;-87
2022/12/31 10:48:28;;;;;;;3.53;0.90;;;18.60;99.90;;;;;;4951707;28;20041;-90
2022/12/31 10:51:03;;;;;;;5.85;1.20;;;18.60;99.90;;;;;;4975561;28;20057;-88
2022/12/31 10:54:00;;;;;;;3.08;0.95;;;18.60;99.90;;;;;;4949482;28;20049;-88
2022/12/31 10:56:45;;;;;;;4.82;1.30;;;18.60;99.90;;;;;;4922715;28;20034;-88
2022/12/31 10:59:38;;;;;;;4.20;1.10;;;18.70;99.90;;;;;;4956175;28;20065;-87
2022/12/31 11:02:12;;;;;;;3.10;1.10;;;18.70;99.90;;;;;;4950770;28;20030;-87
2022/12/31 11:04:44;;;;;;;3.28;1.10;;;18.70;99.90;;;;;;4956340;28;20064;-88
2022/12/31 11:07:12;;;;;;;3.97;1.40;;;18.70;99.90;;;;;;4988201;28;20037;-86
2022/12/31 11:10:10;;;;;;;3.47;0.98;;;18.70;99.90;;;;;;4965959;28;20224;-87
2022/12/31 11:13:09;;;;;;;2.75;1.10;;;18.60;99.90;;;;;;4947409;28;20161;-87
2022/12/31 11:15:47;;;;;;;3.13;1.10;;;18.60;99.90;;;;;;4926825;28;21219;-88
2022/12/31 11:18:29;;;;;;;3.67;1.10;;;18.60;99.90;;;;;;4962365;28;20030;-88
2022/12/31 11:21:18;;;;;;;3.08;1.10;;;18.60;99.90;;;;;;4961887;28;20096;-88
2022/12/31 11:24:05;;;;;;;4.18;1.17;;;18.60;99.90;;;;;;4974424;28;20030;-86
2022/12/31 11:27:04;;;;;;;2.95;1.30;;;18.50;99.90;;;;;;4960440;28;20665;-87
2022/12/31 11:29:56;;;;;;;3.30;0.97;;;18.50;99.90;;;;;;4964086;28;20061;-89
2022/12/31 11:32:49;;;;;;;4.07;1.20;;;18.40;99.90;;;;;;4945698;28;20152;-87
2022/12/31 11:35:35;;;;;;;3.95;1.15;;;18.20;99.90;;;;;;4955932;28;20497;-88
2022/12/31 11:38:24;;;;;;;3.20;1.10;;;18.10;99.90;;;;;;4945925;28;20034;-89
2022/12/31 11:40:53;;;;;;;3.38;1.00;;;18.00;99.90;;;;;;4952415;28;20580;-88
2022/12/31 11:43:24;;;;;;;3.83;1.00;;;17.90;99.90;;;;;;4966087;28;20036;-90
2022/12/31 11:46:24;;;;;;;2.55;0.90;;;17.90;99.90;;;;;;4974212;28;20522;-89
2022/12/31 11:49:31;;;;;;;3.08;1.10;;;17.80;99.90;;;;;;4959581;28;20034;-86
2022/12/31 11:52:02;;;;;;;4.60;1.10;;;17.80;99.90;;;;;;4954506;28;20057;-87
2022/12/31 11:54:40;;;;;;;3.90;1.25;;;17.70;99.90;;;;;;4970752;28;20128;-87
2022/12/31 11:57:34;;;;;;;3.63;1.17;;;17.70;99.90;;;;;;4986256;28;20118;-88
2022/12/31 12:00:22;;;;;;;3.15;1.20;;;17.70;99.90;;;;;;4995081;28;20041;-85
2022/12/31 12:02:51;;;;;;;1.55;1.00;;;17.80;99.90;;;;;;4970572;28;20049;-87
2022/12/31 12:05:22;;;;;;;2.33;1.02;;;17.80;99.90;;;;;;4962150;28;20060;-88
2022/12/31 12:07:49;;;;;;;4.82;1.20;;;17.90;99.90;;;;;;4959885;28;20026;-86
2022/12/31 12:10:28;;;;;;;2.60;1.10;;;17.90;99.90;;;;;;4972222;28;20056;-86
2022/12/31 12:12:56;;;;;;;4.03;1.17;;;18.00;99.90;;;;;;4996277;28;20034;-87
2022/12/31 12:15:27;;;;;;;4.50;1.42;;;18.10;99.90;;;;;;4987522;28;20022;-85
2022/12/31 12:17:56;;;;;;;3.97;1.50;;;18.20;99.90;;;;;;4960502;28;20038;-87
2022/12/31 12:20:29;;;;;;;4.07;1.38;;;18.30;99.90;;;;;;4966815;28;20072;-87
2022/12/31 12:22:57;;;;;;;5.70;1.90;;;18.40;99.90;;;;;;4976971;28;20203;-88
2022/12/31 12:25:26;;;;;;;5.07;1.70;;;18.40;99.90;;;;;;4956805;28;20540;-89
2022/12/31 12:27:53;;;;;;;5.63;1.45;;;18.50;99.90;;;;;;4993419;28;20014;-87
2022/12/31 12:30:21;;;;;;;3.90;1.58;;;18.50;99.90;;;;;;4972513;28;20029;-87
2022/12/31 12:33:03;;;;;;;4.03;1.40;;;18.60;99.90;;;;;;4971318;28;20025;-87
2022/12/31 12:35:34;;;;;;;5.27;1.70;;;18.60;99.90;;;;;;4949565;28;20241;-87
2022/12/31 12:38:17;;;;;;;4.72;1.33;;;18.60;99.90;;;;;;4977184;28;20093;-87
2022/12/31 12:40:57;;;;;;;4.68;1.42;;;18.60;99.90;;;;;;4987651;28;20721;-88
2022/12/31 12:43:29;;;;;;;4.28;1.63;;;18.60;99.90;;;;;;4967067;28;20072;-87
2022/12/31 12:46:18;;;;;;;4.85;1.70;;;18.60;99.90;;;;;;4993309;28;20013;-85
2022/12/31 12:48:53;;;;;;;5.80;1.93;;;18.60;99.90;;;;;;4933700;28;21815;-87
2022/12/31 12:51:52;;;;;;;3.13;1.30;;;18.70;99.90;;;;;;4971494;28;20534;-88
2022/12/31 12:54:37;;;;;;;3.67;1.30;;;18.70;99.90;;;;;;4983899;28;20036;-87
2022/12/31 12:57:19;;;;;;;6.20;1.55;;;18.70;99.90;;;;;;4977166;28;20030;-86
2022/12/31 13:00:00;;;;;;;3.85;1.40;;;18.70;99.90;;;;;;4973107;28;20022;-88
2022/12/31 13:02:31;;;;;;;3.10;1.30;;;18.60;99.90;;;;;;4992974;28;20065;-86
2022/12/31 13:05:12;;;;;;;4.35;1.33;;;18.70;99.90;;;;;;4957332;28;20790;-87
2022/12/31 13:08:02;;;;;;;3.10;1.33;;;18.60;99.90;;;;;;4999687;28;20093;-87
2022/12/31 13:10:40;;;;;;;3.45;1.52;;;18.60;99.90;;;;;;4964176;28;20445;-87
2022/12/31 13:13:21;;;;;;;5.40;1.30;;;18.60;99.90;;;;;;4985993;28;20034;-88
2022/12/31 13:15:53;;;;;;;3.80;1.20;;;18.60;99.90;;;;;;4969502;28;20042;-87
2022/12/31 13:18:46;;;;;;;3.78;1.30;;;18.50;99.90;;;;;;4969029;28;20588;-87
2022/12/31 13:21:44;;;;;;;4.15;1.10;;;18.60;99.90;;;;;;4987611;28;20038;-86
2022/12/31 13:24:34;;;;;;;3.85;1.30;;;18.60;99.90;;;;;;4985488;28;20123;-86
2022/12/31 13:27:20;;;;;;;4.45;1.38;;;18.50;99.90;;;;;;4979867;28;20022;-89
2022/12/31 13:29:48;;;;;;;4.50;1.27;;;18.50;99.90;;;;;;4985527;28;20470;-86
2022/12/31 13:32:22;;;;;;;4.30;1.30;;;18.50;99.90;;;;;;4978020;28;20029;-87
2022/12/31 13:34:54;;;;;;;4.22;1.20;;;18.50;99.90;;;;;;4982014;28;20026;-86
2022/12/31 13:37:29;;;;;;;6.15;1.77;;;18.50;99.90;;;;;;4946261;28;20022;-87
2022/12/31 13:40:06;;;;;;;4.72;1.70;;;18.50;99.90;;;;;;4980626;28;20026;-86
2022/12/31 13:43:04;;;;;;;4.80;1.60;;;18.50;99.90;;;;;;4981030;28;20226;-87